Alexania, Brazil
Current Conditions -  °F | °C
As of 1:00 PM on Friday 31 Oct 2014 (Local Time) from SBAN Reporting Station
Broken Clouds Broken Clouds  
Wind Chill: 72°   Ceiling: 800
Heat Index: 72°   Visibility: 6mi
Dew Point: 64°   Wind: 12mph
Humidity: 78%   Direction: 320°NW
Pressure: 30.12"   Gusts: NA
Location:  16.08°S, 48.51°W
Report Text: SBAN 311500Z 32010KT BKN008 BKN015 BKN100 22/18 Q1020
Loading
Personal Weather Stations






























Interactive Weather Map
Tropical Storm Tracking
New forecast layout! Learn more

10-Day Weather Forecast

Advertisements
Track Severe Weather on mobile